sensor_id;sensor_type;location;lat;lon;timestamp;pressure;altitude;pressure_sealevel;temperature
68440;BMP180;55421;51.600;5.718;2022-10-16T00:01:37;165980.20;;;13.30
68440;BMP180;55421;51.600;5.718;2022-10-16T00:04:04;165990.20;;;13.30
68440;BMP180;55421;51.600;5.718;2022-10-16T00:06:31;165993.41;;;13.34
68440;BMP180;55421;51.600;5.718;2022-10-16T00:08:58;165991.80;;;13.34
68440;BMP180;55421;51.600;5.718;2022-10-16T00:11:29;165983.41;;;13.30
68440;BMP180;55421;51.600;5.718;2022-10-16T00:14:00;165979.00;;;13.30
68440;BMP180;55421;51.600;5.718;2022-10-16T00:16:28;165989.80;;;13.30
68440;BMP180;55421;51.600;5.718;2022-10-16T00:18:55;165999.80;;;13.40
68440;BMP180;55421;51.600;5.718;2022-10-16T00:21:26;166002.59;;;13.40
68440;BMP180;55421;51.600;5.718;2022-10-16T00:23:57;165995.41;;;13.40
68440;BMP180;55421;51.600;5.718;2022-10-16T00:26:29;165981.41;;;13.30
68440;BMP180;55421;51.600;5.718;2022-10-16T00:28:57;165975.41;;;13.30
68440;BMP180;55421;51.600;5.718;2022-10-16T00:31:26;165979.00;;;13.30
68440;BMP180;55421;51.600;5.718;2022-10-16T00:33:52;165976.59;;;13.30
68440;BMP180;55421;51.600;5.718;2022-10-16T00:36:23;165969.80;;;13.30
68440;BMP180;55421;51.600;5.718;2022-10-16T00:38:55;165967.00;;;13.30
68440;BMP180;55421;51.600;5.718;2022-10-16T00:41:24;165959.00;;;13.24
68440;BMP180;55421;51.600;5.718;2022-10-16T00:44:02;165945.41;;;13.20
68440;BMP180;55421;51.600;5.718;2022-10-16T00:46:41;165948.20;;;13.20
68440;BMP180;55421;51.600;5.718;2022-10-16T00:49:16;165949.00;;;13.20
68440;BMP180;55421;51.600;5.718;2022-10-16T00:51:53;165941.41;;;13.20
68440;BMP180;55421;51.600;5.718;2022-10-16T00:54:28;165932.20;;;13.20
68440;BMP180;55421;51.600;5.718;2022-10-16T00:57:00;165905.80;;;13.14
68440;BMP180;55421;51.600;5.718;2022-10-16T00:59:33;165894.20;;;13.10
68440;BMP180;55421;51.600;5.718;2022-10-16T01:02:02;165880.41;;;13.10
68440;BMP180;55421;51.600;5.718;2022-10-16T01:04:35;165884.00;;;13.10
68440;BMP180;55421;51.600;5.718;2022-10-16T01:10:38;165887.41;;;13.10
68440;BMP180;55421;51.600;5.718;2022-10-16T01:13:46;165873.59;;;13.10
68440;BMP180;55421;51.600;5.718;2022-10-16T01:16:24;165865.20;;;13.10
68440;BMP180;55421;51.600;5.718;2022-10-16T01:19:14;165839.20;;;13.00
68440;BMP180;55421;51.600;5.718;2022-10-16T01:21:46;165840.41;;;13.00
68440;BMP180;55421;51.600;5.718;2022-10-16T01:24:41;165840.00;;;13.00
68440;BMP180;55421;51.600;5.718;2022-10-16T01:27:21;165842.80;;;13.00
68440;BMP180;55421;51.600;5.718;2022-10-16T01:30:07;165820.41;;;13.00
68440;BMP180;55421;51.600;5.718;2022-10-16T01:33:07;165821.59;;;12.94
68440;BMP180;55421;51.600;5.718;2022-10-16T01:35:41;165820.00;;;12.92
68440;BMP180;55421;51.600;5.718;2022-10-16T01:38:20;165823.59;;;13.00
68440;BMP180;55421;51.600;5.718;2022-10-16T01:40:58;165836.80;;;13.00
68440;BMP180;55421;51.600;5.718;2022-10-16T01:43:33;165848.00;;;13.00
68440;BMP180;55421;51.600;5.718;2022-10-16T01:46:02;165836.80;;;13.00
68440;BMP180;55421;51.600;5.718;2022-10-16T01:48:32;165844.00;;;13.00
68440;BMP180;55421;51.600;5.718;2022-10-16T01:51:09;165846.41;;;13.00
68440;BMP180;55421;51.600;5.718;2022-10-16T01:53:37;165855.59;;;13.00
68440;BMP180;55421;51.600;5.718;2022-10-16T01:56:08;165866.00;;;13.10
68440;BMP180;55421;51.600;5.718;2022-10-16T01:58:46;165874.41;;;13.10
68440;BMP180;55421;51.600;5.718;2022-10-16T02:01:19;165877.20;;;13.10
68440;BMP180;55421;51.600;5.718;2022-10-16T02:03:52;165874.80;;;13.10
68440;BMP180;55421;51.600;5.718;2022-10-16T02:06:20;165874.41;;;13.10
68440;BMP180;55421;51.600;5.718;2022-10-16T02:08:46;165879.20;;;13.10
68440;BMP180;55421;51.600;5.718;2022-10-16T02:11:15;165891.20;;;13.10
68440;BMP180;55421;51.600;5.718;2022-10-16T02:13:56;165894.59;;;13.10
68440;BMP180;55421;51.600;5.718;2022-10-16T02:16:43;165904.59;;;13.12
68440;BMP180;55421;51.600;5.718;2022-10-16T02:19:12;165909.20;;;13.16
68440;BMP180;55421;51.600;5.718;2022-10-16T02:21:50;165907.00;;;13.16
68440;BMP180;55421;51.600;5.718;2022-10-16T02:27:10;165906.59;;;13.16
68440;BMP180;55421;51.600;5.718;2022-10-16T02:29:49;165902.00;;;13.10
68440;BMP180;55421;51.600;5.718;2022-10-16T02:32:23;165878.00;;;13.10
68440;BMP180;55421;51.600;5.718;2022-10-16T02:34:51;165865.59;;;13.10
68440;BMP180;55421;51.600;5.718;2022-10-16T02:37:19;165860.41;;;13.04
68440;BMP180;55421;51.600;5.718;2022-10-16T02:39:45;165861.59;;;13.08
68440;BMP180;55421;51.600;5.718;2022-10-16T02:42:13;165857.20;;;13.06
68440;BMP180;55421;51.600;5.718;2022-10-16T02:44:39;165853.59;;;13.00
68440;BMP180;55421;51.600;5.718;2022-10-16T02:47:06;165853.20;;;13.00
68440;BMP180;55421;51.600;5.718;2022-10-16T02:49:33;165825.20;;;13.00
68440;BMP180;55421;51.600;5.718;2022-10-16T02:51:59;165819.20;;;13.00
68440;BMP180;55421;51.600;5.718;2022-10-16T02:54:25;165822.80;;;13.00
68440;BMP180;55421;51.600;5.718;2022-10-16T02:56:52;165826.41;;;13.00
68440;BMP180;55421;51.600;5.718;2022-10-16T02:59:19;165831.20;;;13.00
68440;BMP180;55421;51.600;5.718;2022-10-16T03:01:45;165814.59;;;13.00
68440;BMP180;55421;51.600;5.718;2022-10-16T03:04:12;165791.00;;;12.94
68440;BMP180;55421;51.600;5.718;2022-10-16T03:06:38;165785.80;;;12.90
68440;BMP180;55421;51.600;5.718;2022-10-16T03:09:04;165793.00;;;12.90
68440;BMP180;55421;51.600;5.718;2022-10-16T03:11:32;165800.41;;;12.90
68440;BMP180;55421;51.600;5.718;2022-10-16T03:13:59;165778.20;;;12.90
68440;BMP180;55421;51.600;5.718;2022-10-16T03:16:25;165774.20;;;12.90
68440;BMP180;55421;51.600;5.718;2022-10-16T03:18:52;165756.59;;;12.80
68440;BMP180;55421;51.600;5.718;2022-10-16T03:21:18;165738.41;;;12.80
68440;BMP180;55421;51.600;5.718;2022-10-16T03:23:44;165705.59;;;12.80
68440;BMP180;55421;51.600;5.718;2022-10-16T03:26:11;165744.59;;;12.80
68440;BMP180;55421;51.600;5.718;2022-10-16T03:28:37;165735.00;;;12.80
68440;BMP180;55421;51.600;5.718;2022-10-16T03:31:04;165738.59;;;12.80
68440;BMP180;55421;51.600;5.718;2022-10-16T03:33:30;165729.41;;;12.74
68440;BMP180;55421;51.600;5.718;2022-10-16T03:35:57;165700.00;;;12.70
68440;BMP180;55421;51.600;5.718;2022-10-16T03:38:23;165701.80;;;12.70
68440;BMP180;55421;51.600;5.718;2022-10-16T03:40:50;165704.59;;;12.70
68440;BMP180;55421;51.600;5.718;2022-10-16T03:43:16;165690.20;;;12.70
68440;BMP180;55421;51.600;5.718;2022-10-16T03:45:43;165688.20;;;12.68
68440;BMP180;55421;51.600;5.718;2022-10-16T03:48:09;165686.41;;;12.66
68440;BMP180;55421;51.600;5.718;2022-10-16T03:50:36;165683.59;;;12.60
68440;BMP180;55421;51.600;5.718;2022-10-16T03:53:03;165678.41;;;12.60
68440;BMP180;55421;51.600;5.718;2022-10-16T03:55:29;165658.00;;;12.60
68440;BMP180;55421;51.600;5.718;2022-10-16T03:57:56;165674.41;;;12.64
68440;BMP180;55421;51.600;5.718;2022-10-16T04:00:22;165688.41;;;12.68
68440;BMP180;55421;51.600;5.718;2022-10-16T04:02:48;165698.59;;;12.70
68440;BMP180;55421;51.600;5.718;2022-10-16T04:05:15;165680.00;;;12.70
68440;BMP180;55421;51.600;5.718;2022-10-16T04:07:41;165675.59;;;12.66
68440;BMP180;55421;51.600;5.718;2022-10-16T04:10:08;165656.41;;;12.60
68440;BMP180;55421;51.600;5.718;2022-10-16T04:12:34;165639.59;;;12.60
68440;BMP180;55421;51.600;5.718;2022-10-16T04:15:01;165661.20;;;12.60
68440;BMP180;55421;51.600;5.718;2022-10-16T04:17:28;165670.41;;;12.62
68440;BMP180;55421;51.600;5.718;2022-10-16T04:19:54;165680.00;;;12.70
68440;BMP180;55421;51.600;5.718;2022-10-16T04:22:20;165658.59;;;12.64
68440;BMP180;55421;51.600;5.718;2022-10-16T04:24:47;165647.41;;;12.60
68440;BMP180;55421;51.600;5.718;2022-10-16T04:27:13;165639.80;;;12.60
68440;BMP180;55421;51.600;5.718;2022-10-16T04:29:39;165633.59;;;12.60
68440;BMP180;55421;51.600;5.718;2022-10-16T04:32:08;165666.80;;;12.60
68440;BMP180;55421;51.600;5.718;2022-10-16T04:34:35;165660.20;;;12.70
68440;BMP180;55421;51.600;5.718;2022-10-16T04:37:02;165670.00;;;12.70
68440;BMP180;55421;51.600;5.718;2022-10-16T04:39:29;165673.20;;;12.70
68440;BMP180;55421;51.600;5.718;2022-10-16T04:41:55;165685.59;;;12.70
68440;BMP180;55421;51.600;5.718;2022-10-16T04:44:22;165662.20;;;12.70
68440;BMP180;55421;51.600;5.718;2022-10-16T04:46:50;165666.80;;;12.70
68440;BMP180;55421;51.600;5.718;2022-10-16T04:49:17;165663.41;;;12.70
68440;BMP180;55421;51.600;5.718;2022-10-16T04:51:43;165651.80;;;12.70
68440;BMP180;55421;51.600;5.718;2022-10-16T04:54:10;165653.00;;;12.70
68440;BMP180;55421;51.600;5.718;2022-10-16T04:56:36;165652.59;;;12.70
68440;BMP180;55421;51.600;5.718;2022-10-16T04:59:09;165639.20;;;12.66
68440;BMP180;55421;51.600;5.718;2022-10-16T05:01:35;70069.20;;;12.60
68440;BMP180;55421;51.600;5.718;2022-10-16T05:04:02;32649.40;;;12.60
68440;BMP180;55421;51.600;5.718;2022-10-16T05:06:28;25778.80;;;12.60
68440;BMP180;55421;51.600;5.718;2022-10-16T05:08:55;25850.80;;;12.62
68440;BMP180;55421;51.600;5.718;2022-10-16T05:11:21;32111.20;;;12.62
68440;BMP180;55421;51.600;5.718;2022-10-16T05:13:49;30553.60;;;12.60
68440;BMP180;55421;51.600;5.718;2022-10-16T05:16:16;29199.60;;;12.60
68440;BMP180;55421;51.600;5.718;2022-10-16T05:18:42;33555.80;;;12.60
68440;BMP180;55421;51.600;5.718;2022-10-16T05:21:09;30658.00;;;12.60
68440;BMP180;55421;51.600;5.718;2022-10-16T05:23:35;31237.60;;;12.68
68440;BMP180;55421;51.600;5.718;2022-10-16T05:26:02;33598.20;;;12.60
68440;BMP180;55421;51.600;5.718;2022-10-16T05:28:30;32584.80;;;12.60
68440;BMP180;55421;51.600;5.718;2022-10-16T05:30:56;34620.80;;;12.60
68440;BMP180;55421;51.600;5.718;2022-10-16T05:33:25;37166.20;;;12.60
68440;BMP180;55421;51.600;5.718;2022-10-16T05:35:51;55390.00;;;12.60
68440;BMP180;55421;51.600;5.718;2022-10-16T05:38:18;71078.80;;;12.60
68440;BMP180;55421;51.600;5.718;2022-10-16T05:40:51;60304.80;;;12.60
68440;BMP180;55421;51.600;5.718;2022-10-16T05:43:19;70673.00;;;12.60
68440;BMP180;55421;51.600;5.718;2022-10-16T05:45:58;74151.40;;;12.60
68440;BMP180;55421;51.600;5.718;2022-10-16T05:48:26;71505.60;;;12.60
68440;BMP180;55421;51.600;5.718;2022-10-16T05:50:58;79339.60;;;12.60
68440;BMP180;55421;51.600;5.718;2022-10-16T05:53:28;77478.80;;;12.52
68440;BMP180;55421;51.600;5.718;2022-10-16T05:55:55;73175.20;;;12.58
68440;BMP180;55421;51.600;5.718;2022-10-16T05:58:22;73332.20;;;12.60
68440;BMP180;55421;51.600;5.718;2022-10-16T06:00:55;68466.20;;;12.60
68440;BMP180;55421;51.600;5.718;2022-10-16T06:03:23;65017.40;;;12.60
68440;BMP180;55421;51.600;5.718;2022-10-16T06:05:50;66006.40;;;12.56
68440;BMP180;55421;51.600;5.718;2022-10-16T06:08:20;62907.00;;;12.54
68440;BMP180;55421;51.600;5.718;2022-10-16T06:10:47;63306.60;;;12.60
68440;BMP180;55421;51.600;5.718;2022-10-16T06:13:15;72269.00;;;12.60
68440;BMP180;55421;51.600;5.718;2022-10-16T06:15:42;78322.80;;;12.60
68440;BMP180;55421;51.600;5.718;2022-10-16T06:18:10;74776.80;;;12.60
68440;BMP180;55421;51.600;5.718;2022-10-16T06:20:37;74325.60;;;12.60
68440;BMP180;55421;51.600;5.718;2022-10-16T06:23:04;79049.00;;;12.60
68440;BMP180;55421;51.600;5.718;2022-10-16T06:25:31;81626.20;;;12.70
68440;BMP180;55421;51.600;5.718;2022-10-16T06:27:57;78055.40;;;12.70
68440;BMP180;55421;51.600;5.718;2022-10-16T06:30:24;86527.40;;;12.70
68440;BMP180;55421;51.600;5.718;2022-10-16T06:32:50;86195.40;;;12.70
68440;BMP180;55421;51.600;5.718;2022-10-16T06:35:17;84799.60;;;12.70
68440;BMP180;55421;51.600;5.718;2022-10-16T06:37:43;77684.60;;;12.70
68440;BMP180;55421;51.600;5.718;2022-10-16T06:40:10;85128.60;;;12.70
68440;BMP180;55421;51.600;5.718;2022-10-16T06:42:36;69889.80;;;12.70
68440;BMP180;55421;51.600;5.718;2022-10-16T06:45:03;58383.60;;;12.70
68440;BMP180;55421;51.600;5.718;2022-10-16T06:47:29;62319.80;;;12.80
68440;BMP180;55421;51.600;5.718;2022-10-16T06:49:56;70826.60;;;12.80
68440;BMP180;55421;51.600;5.718;2022-10-16T06:52:22;81071.60;;;12.82
68440;BMP180;55421;51.600;5.718;2022-10-16T06:54:49;85226.80;;;12.90
68440;BMP180;55421;51.600;5.718;2022-10-16T06:57:16;83922.60;;;13.00
68440;BMP180;55421;51.600;5.718;2022-10-16T06:59:42;76998.60;;;13.00
68440;BMP180;55421;51.600;5.718;2022-10-16T07:02:08;82128.80;;;13.10
68440;BMP180;55421;51.600;5.718;2022-10-16T07:04:36;87470.00;;;13.14
68440;BMP180;55421;51.600;5.718;2022-10-16T07:07:02;82149.80;;;13.20
68440;BMP180;55421;51.600;5.718;2022-10-16T07:09:29;72345.00;;;13.20
68440;BMP180;55421;51.600;5.718;2022-10-16T07:11:55;95675.00;;;13.30
68440;BMP180;55421;51.600;5.718;2022-10-16T07:14:22;108313.80;;;13.32
68440;BMP180;55421;51.600;5.718;2022-10-16T07:16:48;103692.40;;;13.40
68440;BMP180;55421;51.600;5.718;2022-10-16T07:19:15;106552.20;;;13.50
68440;BMP180;55421;51.600;5.718;2022-10-16T07:21:44;109483.60;;;13.58
68440;BMP180;55421;51.600;5.718;2022-10-16T07:24:15;112780.00;;;13.60
68440;BMP180;55421;51.600;5.718;2022-10-16T07:26:44;117281.60;;;13.60
68440;BMP180;55421;51.600;5.718;2022-10-16T07:29:15;126130.20;;;13.70
68440;BMP180;55421;51.600;5.718;2022-10-16T07:31:42;117494.60;;;13.70
68440;BMP180;55421;51.600;5.718;2022-10-16T07:34:10;104376.60;;;13.72
68440;BMP180;55421;51.600;5.718;2022-10-16T07:36:37;114381.00;;;13.80
68440;BMP180;55421;51.600;5.718;2022-10-16T07:39:03;112709.40;;;13.84
68440;BMP180;55421;51.600;5.718;2022-10-16T07:41:30;113700.20;;;13.90
68440;BMP180;55421;51.600;5.718;2022-10-16T07:43:59;115422.80;;;13.90
68440;BMP180;55421;51.600;5.718;2022-10-16T07:46:28;119692.00;;;14.00
68440;BMP180;55421;51.600;5.718;2022-10-16T07:48:54;105021.00;;;14.00
68440;BMP180;55421;51.600;5.718;2022-10-16T07:51:24;98517.80;;;14.06
68440;BMP180;55421;51.600;5.718;2022-10-16T07:53:51;102997.40;;;14.10
68440;BMP180;55421;51.600;5.718;2022-10-16T07:56:20;96328.00;;;14.10
68440;BMP180;55421;51.600;5.718;2022-10-16T07:58:47;84718.00;;;14.14
68440;BMP180;55421;51.600;5.718;2022-10-16T08:01:16;93891.20;;;14.20
68440;BMP180;55421;51.600;5.718;2022-10-16T08:03:45;95854.80;;;14.30
68440;BMP180;55421;51.600;5.718;2022-10-16T08:06:12;86679.40;;;14.40
68440;BMP180;55421;51.600;5.718;2022-10-16T08:08:39;76617.40;;;14.40
68440;BMP180;55421;51.600;5.718;2022-10-16T08:11:05;80105.60;;;14.50
68440;BMP180;55421;51.600;5.718;2022-10-16T08:13:32;79022.20;;;14.50
68440;BMP180;55421;51.600;5.718;2022-10-16T08:15:59;80327.00;;;14.60
68440;BMP180;55421;51.600;5.718;2022-10-16T08:18:25;75948.40;;;14.70
68440;BMP180;55421;51.600;5.718;2022-10-16T08:20:57;74643.20;;;14.80
68440;BMP180;55421;51.600;5.718;2022-10-16T08:23:24;76132.00;;;14.80
68440;BMP180;55421;51.600;5.718;2022-10-16T08:26:01;80227.40;;;14.86
68440;BMP180;55421;51.600;5.718;2022-10-16T08:28:28;80724.80;;;14.80
68440;BMP180;55421;51.600;5.718;2022-10-16T08:30:55;81525.40;;;14.90
68440;BMP180;55421;51.600;5.718;2022-10-16T08:33:23;88076.40;;;14.90
68440;BMP180;55421;51.600;5.718;2022-10-16T08:35:53;97917.40;;;14.88
68440;BMP180;55421;51.600;5.718;2022-10-16T08:38:20;103513.20;;;14.82
68440;BMP180;55421;51.600;5.718;2022-10-16T08:40:46;99321.00;;;14.90
68440;BMP180;55421;51.600;5.718;2022-10-16T08:43:28;107403.20;;;15.00
68440;BMP180;55421;51.600;5.718;2022-10-16T08:46:28;114087.00;;;15.10
68440;BMP180;55421;51.600;5.718;2022-10-16T08:49:00;101111.60;;;15.20
68440;BMP180;55421;51.600;5.718;2022-10-16T08:51:31;92156.20;;;15.22
68440;BMP180;55421;51.600;5.718;2022-10-16T08:54:34;99861.20;;;15.30
68440;BMP180;55421;51.600;5.718;2022-10-16T08:57:19;93426.40;;;15.30
68440;BMP180;55421;51.600;5.718;2022-10-16T08:59:46;78926.00;;;15.34
68440;BMP180;55421;51.600;5.718;2022-10-16T09:02:31;74196.80;;;15.48
68440;BMP180;55421;51.600;5.718;2022-10-16T09:05:24;73956.60;;;15.50
68440;BMP180;55421;51.600;5.718;2022-10-16T09:08:18;78479.20;;;15.50
68440;BMP180;55421;51.600;5.718;2022-10-16T09:10:58;88562.20;;;15.60
68440;BMP180;55421;51.600;5.718;2022-10-16T09:13:55;94975.40;;;15.66
68440;BMP180;55421;51.600;5.718;2022-10-16T09:19:25;112175.40;;;15.90
68440;BMP180;55421;51.600;5.718;2022-10-16T09:21:56;111585.20;;;16.00
68440;BMP180;55421;51.600;5.718;2022-10-16T09:24:26;104721.40;;;16.10
68440;BMP180;55421;51.600;5.718;2022-10-16T09:26:52;104789.40;;;16.10
68440;BMP180;55421;51.600;5.718;2022-10-16T09:29:21;105434.40;;;16.20
68440;BMP180;55421;51.600;5.718;2022-10-16T09:31:48;105661.00;;;16.22
68440;BMP180;55421;51.600;5.718;2022-10-16T09:36:52;96142.80;;;16.38
68440;BMP180;55421;51.600;5.718;2022-10-16T09:39:19;92618.80;;;16.40
68440;BMP180;55421;51.600;5.718;2022-10-16T09:41:45;93668.00;;;16.48
68440;BMP180;55421;51.600;5.718;2022-10-16T09:44:28;89717.20;;;16.50
68440;BMP180;55421;51.600;5.718;2022-10-16T09:47:17;91425.40;;;16.50
68440;BMP180;55421;51.600;5.718;2022-10-16T09:49:57;93162.20;;;16.50
68440;BMP180;55421;51.600;5.718;2022-10-16T09:52:29;93425.80;;;16.60
68440;BMP180;55421;51.600;5.718;2022-10-16T09:55:09;94721.60;;;16.70
68440;BMP180;55421;51.600;5.718;2022-10-16T09:57:49;88003.80;;;16.80
68440;BMP180;55421;51.600;5.718;2022-10-16T10:00:17;95671.20;;;16.70
68440;BMP180;55421;51.600;5.718;2022-10-16T10:02:45;99989.40;;;16.80
68440;BMP180;55421;51.600;5.718;2022-10-16T10:05:22;102963.80;;;16.80
68440;BMP180;55421;51.600;5.718;2022-10-16T10:07:59;105767.00;;;16.80
68440;BMP180;55421;51.600;5.718;2022-10-16T10:10:32;107581.80;;;16.90
68440;BMP180;55421;51.600;5.718;2022-10-16T10:12:59;116611.80;;;17.00
68440;BMP180;55421;51.600;5.718;2022-10-16T10:15:33;147002.20;;;17.10
68440;BMP180;55421;51.600;5.718;2022-10-16T10:18:00;156741.59;;;17.20
68440;BMP180;55421;51.600;5.718;2022-10-16T10:20:34;158932.20;;;17.30
68440;BMP180;55421;51.600;5.718;2022-10-16T10:23:33;160715.59;;;17.30
68440;BMP180;55421;51.600;5.718;2022-10-16T10:26:16;163833.80;;;17.40
68440;BMP180;55421;51.600;5.718;2022-10-16T10:29:04;164239.41;;;17.40
68440;BMP180;55421;51.600;5.718;2022-10-16T10:31:57;162060.80;;;17.30
68440;BMP180;55421;51.600;5.718;2022-10-16T10:35:00;164009.00;;;17.40
68440;BMP180;55421;51.600;5.718;2022-10-16T10:38:06;165333.20;;;17.30
68440;BMP180;55421;51.600;5.718;2022-10-16T10:40:51;145682.41;;;17.30
68440;BMP180;55421;51.600;5.718;2022-10-16T10:43:30;137617.41;;;17.40
68440;BMP180;55421;51.600;5.718;2022-10-16T10:46:04;134002.20;;;17.50
68440;BMP180;55421;51.600;5.718;2022-10-16T10:49:16;122962.20;;;17.56
68440;BMP180;55421;51.600;5.718;2022-10-16T10:53:16;120752.80;;;17.62
68440;BMP180;55421;51.600;5.718;2022-10-16T10:55:28;109434.20;;;17.80
68440;BMP180;55421;51.600;5.718;2022-10-16T11:01:39;93147.20;;;17.80
68440;BMP180;55421;51.600;5.718;2022-10-16T11:04:48;87729.00;;;17.80
68440;BMP180;55421;51.600;5.718;2022-10-16T11:07:24;76299.60;;;17.88
68440;BMP180;55421;51.600;5.718;2022-10-16T11:09:59;81792.00;;;17.94
68440;BMP180;55421;51.600;5.718;2022-10-16T11:12:39;76992.60;;;18.00
68440;BMP180;55421;51.600;5.718;2022-10-16T11:15:27;76458.00;;;18.12
68440;BMP180;55421;51.600;5.718;2022-10-16T11:18:06;65234.80;;;18.20
68440;BMP180;55421;51.600;5.718;2022-10-16T11:20:47;66818.80;;;18.20
68440;BMP180;55421;51.600;5.718;2022-10-16T11:23:30;48230.20;;;18.20
68440;BMP180;55421;51.600;5.718;2022-10-16T11:26:03;56603.60;;;18.20
68440;BMP180;55421;51.600;5.718;2022-10-16T11:28:45;62326.60;;;18.30
68440;BMP180;55421;51.600;5.718;2022-10-16T11:31:38;42881.60;;;18.30
68440;BMP180;55421;51.600;5.718;2022-10-16T11:34:17;28754.40;;;18.30
68440;BMP180;55421;51.600;5.718;2022-10-16T11:39:38;14239.20;;;18.30
68440;BMP180;55421;51.600;5.718;2022-10-16T11:42:15;12004.80;;;18.30
68440;BMP180;55421;51.600;5.718;2022-10-16T11:47:52;151002.80;;;18.30
68440;BMP180;55421;51.600;5.718;2022-10-16T11:53:51;194209.59;;;18.08
68440;BMP180;55421;51.600;5.718;2022-10-16T11:56:21;196361.00;;;17.98
68440;BMP180;55421;51.600;5.718;2022-10-16T12:01:42;53878.80;;;17.90
68440;BMP180;55421;51.600;5.718;2022-10-16T12:04:36;101679.00;;;17.98
68440;BMP180;55421;51.600;5.718;2022-10-16T12:07:17;149268.80;;;18.10
68440;BMP180;55421;51.600;5.718;2022-10-16T12:09:44;151327.80;;;18.20
68440;BMP180;55421;51.600;5.718;2022-10-16T12:15:21;243620.20;;;18.56
68440;BMP180;55421;51.600;5.718;2022-10-16T12:17:48;241706.80;;;18.60
68440;BMP180;55421;51.600;5.718;2022-10-16T12:20:26;242749.80;;;18.62
68440;BMP180;55421;51.600;5.718;2022-10-16T12:22:57;227760.20;;;18.70
68440;BMP180;55421;51.600;5.718;2022-10-16T12:25:34;225385.00;;;18.70
68440;BMP180;55421;51.600;5.718;2022-10-16T12:28:06;224951.59;;;18.70
68440;BMP180;55421;51.600;5.718;2022-10-16T12:30:53;224920.20;;;18.66
68440;BMP180;55421;51.600;5.718;2022-10-16T12:33:30;224955.00;;;18.60
68440;BMP180;55421;51.600;5.718;2022-10-16T12:36:01;224883.80;;;18.60
68440;BMP180;55421;51.600;5.718;2022-10-16T12:38:49;224849.41;;;18.50
68440;BMP180;55421;51.600;5.718;2022-10-16T12:41:35;224824.41;;;18.50
68440;BMP180;55421;51.600;5.718;2022-10-16T12:44:03;224798.80;;;18.40
68440;BMP180;55421;51.600;5.718;2022-10-16T12:51:38;224717.00;;;18.30
68440;BMP180;55421;51.600;5.718;2022-10-16T12:54:14;224659.41;;;18.20
68440;BMP180;55421;51.600;5.718;2022-10-16T13:00:17;148093.59;;;18.06
68440;BMP180;55421;51.600;5.718;2022-10-16T13:08:51;238312.00;;;18.00
68440;BMP180;55421;51.600;5.718;2022-10-16T13:12:17;224812.59;;;18.00
68440;BMP180;55421;51.600;5.718;2022-10-16T13:18:13;224579.20;;;18.00
68440;BMP180;55421;51.600;5.718;2022-10-16T13:24:39;224651.41;;;18.10
68440;BMP180;55421;51.600;5.718;2022-10-16T13:27:18;224555.20;;;18.00
68440;BMP180;55421;51.600;5.718;2022-10-16T13:30:01;224507.00;;;17.90
68440;BMP180;55421;51.600;5.718;2022-10-16T13:32:28;224466.59;;;17.84
68440;BMP180;55421;51.600;5.718;2022-10-16T13:34:55;224439.00;;;17.80
68440;BMP180;55421;51.600;5.718;2022-10-16T13:37:24;224403.41;;;17.74
68440;BMP180;55421;51.600;5.718;2022-10-16T13:40:09;224397.59;;;17.70
68440;BMP180;55421;51.600;5.718;2022-10-16T13:42:43;224396.00;;;17.70
68440;BMP180;55421;51.600;5.718;2022-10-16T13:45:22;224414.20;;;17.76
68440;BMP180;55421;51.600;5.718;2022-10-16T13:47:49;224898.20;;;17.80
68440;BMP180;55421;51.600;5.718;2022-10-16T13:50:18;224524.80;;;17.80
68440;BMP180;55421;51.600;5.718;2022-10-16T13:52:44;225425.80;;;17.90
68440;BMP180;55421;51.600;5.718;2022-10-16T13:55:14;224518.59;;;17.90
68440;BMP180;55421;51.600;5.718;2022-10-16T13:57:42;224623.00;;;18.00
68440;BMP180;55421;51.600;5.718;2022-10-16T14:00:26;224568.00;;;18.00
68440;BMP180;55421;51.600;5.718;2022-10-16T14:03:04;224571.20;;;18.00
68440;BMP180;55421;51.600;5.718;2022-10-16T14:05:32;224574.41;;;18.00
68440;BMP180;55421;51.600;5.718;2022-10-16T14:08:00;224582.00;;;18.00
68440;BMP180;55421;51.600;5.718;2022-10-16T14:10:32;224589.59;;;18.04
68440;BMP180;55421;51.600;5.718;2022-10-16T14:13:05;224667.00;;;18.10
68440;BMP180;55421;51.600;5.718;2022-10-16T14:15:36;224702.59;;;18.10
68440;BMP180;55421;51.600;5.718;2022-10-16T14:18:03;224719.00;;;18.10
68440;BMP180;55421;51.600;5.718;2022-10-16T14:20:33;224643.20;;;18.12
68440;BMP180;55421;51.600;5.718;2022-10-16T14:25:44;224638.80;;;18.16
68440;BMP180;55421;51.600;5.718;2022-10-16T14:28:18;224628.00;;;18.10
68440;BMP180;55421;51.600;5.718;2022-10-16T14:30:58;224713.00;;;18.10
68440;BMP180;55421;51.600;5.718;2022-10-16T14:38:43;225685.80;;;18.00
68440;BMP180;55421;51.600;5.718;2022-10-16T14:41:15;228893.20;;;17.90
68440;BMP180;55421;51.600;5.718;2022-10-16T14:43:43;227936.80;;;17.90
68440;BMP180;55421;51.600;5.718;2022-10-16T14:46:14;231216.00;;;17.88
68440;BMP180;55421;51.600;5.718;2022-10-16T14:48:50;233754.80;;;17.90
68440;BMP180;55421;51.600;5.718;2022-10-16T14:51:19;240408.41;;;17.90
68440;BMP180;55421;51.600;5.718;2022-10-16T14:53:47;194721.41;;;17.90
68440;BMP180;55421;51.600;5.718;2022-10-16T14:56:20;149835.20;;;17.94
68440;BMP180;55421;51.600;5.718;2022-10-16T14:58:50;54316.80;;;18.00
68440;BMP180;55421;51.600;5.718;2022-10-16T15:01:17;102260.60;;;18.00
68440;BMP180;55421;51.600;5.718;2022-10-16T15:03:44;55474.40;;;18.00
68440;BMP180;55421;51.600;5.718;2022-10-16T15:06:12;54527.20;;;18.00
68440;BMP180;55421;51.600;5.718;2022-10-16T15:08:39;9487.00;;;18.00
68440;BMP180;55421;51.600;5.718;2022-10-16T15:11:14;10938.40;;;18.00
68440;BMP180;55421;51.600;5.718;2022-10-16T15:13:41;12462.00;;;18.00
68440;BMP180;55421;51.600;5.718;2022-10-16T15:16:12;14162.20;;;18.00
68440;BMP180;55421;51.600;5.718;2022-10-16T15:18:39;13529.20;;;18.00
68440;BMP180;55421;51.600;5.718;2022-10-16T15:21:06;18828.20;;;18.00
68440;BMP180;55421;51.600;5.718;2022-10-16T15:23:32;25631.60;;;18.00
68440;BMP180;55421;51.600;5.718;2022-10-16T15:25:59;25654.80;;;18.00
68440;BMP180;55421;51.600;5.718;2022-10-16T15:28:26;29024.40;;;17.90
68440;BMP180;55421;51.600;5.718;2022-10-16T15:30:55;41262.40;;;17.90